sensor_id;sensor_type;location;lat;lon;timestamp;P1;durP1;ratioP1;P2;durP2;ratioP2
8104;SDS011;4095;48.942;9.104;2023-07-30T00:01:48;2.90;;;2.30;;
8104;SDS011;4095;48.942;9.104;2023-07-30T00:04:13;3.40;;;2.20;;
8104;SDS011;4095;48.942;9.104;2023-07-30T00:06:39;3.70;;;2.53;;
8104;SDS011;4095;48.942;9.104;2023-07-30T00:09:04;3.27;;;2.13;;
8104;SDS011;4095;48.942;9.104;2023-07-30T00:11:30;2.83;;;2.37;;
8104;SDS011;4095;48.942;9.104;2023-07-30T00:13:55;2.53;;;2.20;;
8104;SDS011;4095;48.942;9.104;2023-07-30T00:16:21;2.37;;;2.03;;
8104;SDS011;4095;48.942;9.104;2023-07-30T00:18:47;2.47;;;2.07;;
8104;SDS011;4095;48.942;9.104;2023-07-30T00:21:12;2.33;;;2.13;;
8104;SDS011;4095;48.942;9.104;2023-07-30T00:23:38;3.33;;;2.40;;
8104;SDS011;4095;48.942;9.104;2023-07-30T00:26:03;2.47;;;2.20;;
8104;SDS011;4095;48.942;9.104;2023-07-30T00:28:29;3.40;;;2.50;;
8104;SDS011;4095;48.942;9.104;2023-07-30T00:30:54;3.37;;;2.40;;
8104;SDS011;4095;48.942;9.104;2023-07-30T00:33:20;3.43;;;2.50;;
8104;SDS011;4095;48.942;9.104;2023-07-30T00:35:46;2.57;;;2.37;;
8104;SDS011;4095;48.942;9.104;2023-07-30T00:38:11;3.73;;;2.27;;
8104;SDS011;4095;48.942;9.104;2023-07-30T00:40:40;3.97;;;2.50;;
8104;SDS011;4095;48.942;9.104;2023-07-30T00:43:06;3.13;;;2.40;;
8104;SDS011;4095;48.942;9.104;2023-07-30T00:45:32;3.47;;;2.30;;
8104;SDS011;4095;48.942;9.104;2023-07-30T00:47:58;2.63;;;2.43;;
8104;SDS011;4095;48.942;9.104;2023-07-30T00:50:24;4.13;;;2.00;;
8104;SDS011;4095;48.942;9.104;2023-07-30T00:52:50;2.67;;;2.10;;
8104;SDS011;4095;48.942;9.104;2023-07-30T00:55:15;2.63;;;2.20;;
8104;SDS011;4095;48.942;9.104;2023-07-30T00:57:41;2.67;;;2.20;;
8104;SDS011;4095;48.942;9.104;2023-07-30T01:00:08;2.40;;;2.20;;
8104;SDS011;4095;48.942;9.104;2023-07-30T01:02:35;2.67;;;2.20;;
8104;SDS011;4095;48.942;9.104;2023-07-30T01:05:01;2.43;;;2.23;;
8104;SDS011;4095;48.942;9.104;2023-07-30T01:07:29;3.40;;;2.47;;
8104;SDS011;4095;48.942;9.104;2023-07-30T01:09:55;3.70;;;2.30;;
8104;SDS011;4095;48.942;9.104;2023-07-30T01:12:21;2.33;;;2.00;;
8104;SDS011;4095;48.942;9.104;2023-07-30T01:14:48;2.80;;;2.10;;
8104;SDS011;4095;48.942;9.104;2023-07-30T01:17:15;3.77;;;2.40;;
8104;SDS011;4095;48.942;9.104;2023-07-30T01:19:41;3.83;;;2.50;;
8104;SDS011;4095;48.942;9.104;2023-07-30T01:22:07;2.30;;;2.10;;
8104;SDS011;4095;48.942;9.104;2023-07-30T01:24:32;3.33;;;2.20;;
8104;SDS011;4095;48.942;9.104;2023-07-30T01:27:02;2.17;;;1.97;;
8104;SDS011;4095;48.942;9.104;2023-07-30T01:32:02;2.43;;;2.00;;
8104;SDS011;4095;48.942;9.104;2023-07-30T01:34:32;3.20;;;2.03;;
8104;SDS011;4095;48.942;9.104;2023-07-30T01:37:00;2.70;;;1.60;;
8104;SDS011;4095;48.942;9.104;2023-07-30T01:39:27;2.00;;;1.60;;
8104;SDS011;4095;48.942;9.104;2023-07-30T01:41:53;3.40;;;1.90;;
8104;SDS011;4095;48.942;9.104;2023-07-30T01:44:20;2.57;;;1.90;;
8104;SDS011;4095;48.942;9.104;2023-07-30T01:46:45;2.77;;;2.20;;
8104;SDS011;4095;48.942;9.104;2023-07-30T01:49:11;2.80;;;1.80;;
8104;SDS011;4095;48.942;9.104;2023-07-30T01:51:37;2.00;;;1.87;;
8104;SDS011;4095;48.942;9.104;2023-07-30T01:54:02;1.80;;;1.70;;
8104;SDS011;4095;48.942;9.104;2023-07-30T01:56:28;2.30;;;1.60;;
8104;SDS011;4095;48.942;9.104;2023-07-30T01:58:54;3.83;;;2.00;;
8104;SDS011;4095;48.942;9.104;2023-07-30T02:01:19;2.43;;;2.03;;
8104;SDS011;4095;48.942;9.104;2023-07-30T02:03:45;2.27;;;1.70;;
8104;SDS011;4095;48.942;9.104;2023-07-30T02:06:11;2.50;;;1.80;;
8104;SDS011;4095;48.942;9.104;2023-07-30T02:08:37;3.27;;;1.83;;
8104;SDS011;4095;48.942;9.104;2023-07-30T02:11:02;3.50;;;1.93;;
8104;SDS011;4095;48.942;9.104;2023-07-30T02:13:28;2.63;;;2.00;;
8104;SDS011;4095;48.942;9.104;2023-07-30T02:15:54;1.80;;;1.60;;
8104;SDS011;4095;48.942;9.104;2023-07-30T02:18:19;1.70;;;1.60;;
8104;SDS011;4095;48.942;9.104;2023-07-30T02:20:45;4.53;;;2.10;;
8104;SDS011;4095;48.942;9.104;2023-07-30T02:23:11;2.67;;;1.90;;
8104;SDS011;4095;48.942;9.104;2023-07-30T02:25:38;2.63;;;1.80;;
8104;SDS011;4095;48.942;9.104;2023-07-30T02:28:04;2.30;;;1.73;;
8104;SDS011;4095;48.942;9.104;2023-07-30T02:30:30;2.70;;;1.80;;
8104;SDS011;4095;48.942;9.104;2023-07-30T02:32:55;2.87;;;1.90;;
8104;SDS011;4095;48.942;9.104;2023-07-30T02:35:21;2.40;;;2.20;;
8104;SDS011;4095;48.942;9.104;2023-07-30T02:37:46;2.57;;;1.87;;
8104;SDS011;4095;48.942;9.104;2023-07-30T02:40:12;3.10;;;1.87;;
8104;SDS011;4095;48.942;9.104;2023-07-30T02:42:37;2.57;;;1.70;;
8104;SDS011;4095;48.942;9.104;2023-07-30T02:45:03;3.57;;;1.90;;
8104;SDS011;4095;48.942;9.104;2023-07-30T02:47:30;3.40;;;1.70;;
8104;SDS011;4095;48.942;9.104;2023-07-30T02:49:55;2.30;;;1.60;;
8104;SDS011;4095;48.942;9.104;2023-07-30T02:52:21;2.10;;;1.90;;
8104;SDS011;4095;48.942;9.104;2023-07-30T02:54:47;2.20;;;1.90;;
8104;SDS011;4095;48.942;9.104;2023-07-30T02:57:12;2.27;;;1.93;;
8104;SDS011;4095;48.942;9.104;2023-07-30T02:59:38;4.90;;;1.60;;
8104;SDS011;4095;48.942;9.104;2023-07-30T03:02:05;2.10;;;1.70;;
8104;SDS011;4095;48.942;9.104;2023-07-30T03:04:31;3.57;;;1.80;;
8104;SDS011;4095;48.942;9.104;2023-07-30T03:06:57;2.33;;;1.77;;
8104;SDS011;4095;48.942;9.104;2023-07-30T03:09:23;2.10;;;1.80;;
8104;SDS011;4095;48.942;9.104;2023-07-30T03:11:49;2.37;;;1.60;;
8104;SDS011;4095;48.942;9.104;2023-07-30T03:14:15;2.20;;;1.73;;
8104;SDS011;4095;48.942;9.104;2023-07-30T03:16:41;2.00;;;1.67;;
8104;SDS011;4095;48.942;9.104;2023-07-30T03:19:07;2.20;;;2.00;;
8104;SDS011;4095;48.942;9.104;2023-07-30T03:21:32;3.83;;;1.80;;
8104;SDS011;4095;48.942;9.104;2023-07-30T03:23:58;2.57;;;1.97;;
8104;SDS011;4095;48.942;9.104;2023-07-30T03:26:23;2.83;;;1.73;;
8104;SDS011;4095;48.942;9.104;2023-07-30T03:28:49;3.07;;;1.90;;
8104;SDS011;4095;48.942;9.104;2023-07-30T03:31:15;4.37;;;1.80;;
8104;SDS011;4095;48.942;9.104;2023-07-30T03:33:40;2.33;;;2.00;;
8104;SDS011;4095;48.942;9.104;2023-07-30T03:36:09;3.50;;;1.90;;
8104;SDS011;4095;48.942;9.104;2023-07-30T03:38:38;2.40;;;1.83;;
8104;SDS011;4095;48.942;9.104;2023-07-30T03:41:05;2.73;;;1.50;;
8104;SDS011;4095;48.942;9.104;2023-07-30T03:43:34;1.57;;;1.47;;
8104;SDS011;4095;48.942;9.104;2023-07-30T03:46:00;2.37;;;1.73;;
8104;SDS011;4095;48.942;9.104;2023-07-30T03:48:26;2.83;;;1.83;;
8104;SDS011;4095;48.942;9.104;2023-07-30T03:50:52;2.57;;;1.90;;
8104;SDS011;4095;48.942;9.104;2023-07-30T03:53:18;1.83;;;1.70;;
8104;SDS011;4095;48.942;9.104;2023-07-30T03:55:44;2.10;;;1.90;;
8104;SDS011;4095;48.942;9.104;2023-07-30T03:58:10;2.50;;;1.80;;
8104;SDS011;4095;48.942;9.104;2023-07-30T04:00:35;1.90;;;1.57;;
8104;SDS011;4095;48.942;9.104;2023-07-30T04:03:01;3.33;;;1.90;;
8104;SDS011;4095;48.942;9.104;2023-07-30T04:05:26;1.80;;;1.70;;
8104;SDS011;4095;48.942;9.104;2023-07-30T04:07:52;2.47;;;1.70;;
8104;SDS011;4095;48.942;9.104;2023-07-30T04:10:17;1.90;;;1.80;;
8104;SDS011;4095;48.942;9.104;2023-07-30T04:12:44;1.90;;;1.70;;
8104;SDS011;4095;48.942;9.104;2023-07-30T04:15:09;2.93;;;1.80;;
8104;SDS011;4095;48.942;9.104;2023-07-30T04:17:36;4.07;;;1.93;;
8104;SDS011;4095;48.942;9.104;2023-07-30T04:20:02;2.17;;;1.93;;
8104;SDS011;4095;48.942;9.104;2023-07-30T04:22:29;3.33;;;1.87;;
8104;SDS011;4095;48.942;9.104;2023-07-30T04:24:55;3.97;;;2.10;;
8104;SDS011;4095;48.942;9.104;2023-07-30T04:27:20;3.10;;;1.63;;
8104;SDS011;4095;48.942;9.104;2023-07-30T04:29:46;2.77;;;2.10;;
8104;SDS011;4095;48.942;9.104;2023-07-30T04:32:11;3.23;;;1.93;;
8104;SDS011;4095;48.942;9.104;2023-07-30T04:34:37;4.50;;;2.07;;
8104;SDS011;4095;48.942;9.104;2023-07-30T04:37:03;2.73;;;2.10;;
8104;SDS011;4095;48.942;9.104;2023-07-30T04:39:29;4.17;;;2.10;;
8104;SDS011;4095;48.942;9.104;2023-07-30T04:41:57;2.63;;;2.27;;
8104;SDS011;4095;48.942;9.104;2023-07-30T04:44:23;2.83;;;2.10;;
8104;SDS011;4095;48.942;9.104;2023-07-30T04:46:48;2.50;;;2.30;;
8104;SDS011;4095;48.942;9.104;2023-07-30T04:49:14;2.73;;;2.00;;
8104;SDS011;4095;48.942;9.104;2023-07-30T04:51:40;4.03;;;2.00;;
8104;SDS011;4095;48.942;9.104;2023-07-30T04:54:05;3.40;;;2.30;;
8104;SDS011;4095;48.942;9.104;2023-07-30T04:56:31;2.53;;;2.10;;
8104;SDS011;4095;48.942;9.104;2023-07-30T04:58:56;2.20;;;2.00;;
8104;SDS011;4095;48.942;9.104;2023-07-30T05:01:23;3.33;;;1.93;;
8104;SDS011;4095;48.942;9.104;2023-07-30T05:03:49;2.73;;;2.40;;
8104;SDS011;4095;48.942;9.104;2023-07-30T05:06:15;3.27;;;2.13;;
8104;SDS011;4095;48.942;9.104;2023-07-30T05:08:41;3.40;;;2.33;;
8104;SDS011;4095;48.942;9.104;2023-07-30T05:11:06;4.40;;;2.23;;
8104;SDS011;4095;48.942;9.104;2023-07-30T05:13:32;3.87;;;2.20;;
8104;SDS011;4095;48.942;9.104;2023-07-30T05:15:57;2.70;;;2.30;;
8104;SDS011;4095;48.942;9.104;2023-07-30T05:18:23;2.93;;;2.17;;
8104;SDS011;4095;48.942;9.104;2023-07-30T05:20:49;3.97;;;2.30;;
8104;SDS011;4095;48.942;9.104;2023-07-30T05:23:15;2.93;;;2.63;;
8104;SDS011;4095;48.942;9.104;2023-07-30T05:25:41;2.70;;;2.30;;
8104;SDS011;4095;48.942;9.104;2023-07-30T05:28:06;2.53;;;2.10;;
8104;SDS011;4095;48.942;9.104;2023-07-30T05:30:33;2.27;;;2.03;;
8104;SDS011;4095;48.942;9.104;2023-07-30T05:32:59;2.63;;;2.40;;
8104;SDS011;4095;48.942;9.104;2023-07-30T05:35:24;2.23;;;1.97;;
8104;SDS011;4095;48.942;9.104;2023-07-30T05:37:50;5.10;;;2.10;;
8104;SDS011;4095;48.942;9.104;2023-07-30T05:40:16;1.93;;;1.80;;
8104;SDS011;4095;48.942;9.104;2023-07-30T05:42:41;2.30;;;2.10;;
8104;SDS011;4095;48.942;9.104;2023-07-30T05:45:07;2.23;;;1.97;;
8104;SDS011;4095;48.942;9.104;2023-07-30T05:47:33;2.87;;;1.87;;
8104;SDS011;4095;48.942;9.104;2023-07-30T05:49:58;2.87;;;2.00;;
8104;SDS011;4095;48.942;9.104;2023-07-30T05:52:24;2.90;;;2.17;;
8104;SDS011;4095;48.942;9.104;2023-07-30T05:54:50;2.13;;;1.83;;
8104;SDS011;4095;48.942;9.104;2023-07-30T05:57:15;2.50;;;1.80;;
8104;SDS011;4095;48.942;9.104;2023-07-30T05:59:41;2.30;;;1.73;;
8104;SDS011;4095;48.942;9.104;2023-07-30T06:02:06;2.13;;;1.77;;
8104;SDS011;4095;48.942;9.104;2023-07-30T06:04:32;2.33;;;1.57;;
8104;SDS011;4095;48.942;9.104;2023-07-30T06:06:59;2.00;;;1.50;;
8104;SDS011;4095;48.942;9.104;2023-07-30T06:09:25;1.77;;;1.67;;
8104;SDS011;4095;48.942;9.104;2023-07-30T06:11:51;2.03;;;1.63;;
8104;SDS011;4095;48.942;9.104;2023-07-30T06:14:16;1.67;;;1.50;;
8104;SDS011;4095;48.942;9.104;2023-07-30T06:16:42;2.43;;;1.60;;
8104;SDS011;4095;48.942;9.104;2023-07-30T06:19:08;1.77;;;1.67;;
8104;SDS011;4095;48.942;9.104;2023-07-30T06:21:34;1.67;;;1.57;;
8104;SDS011;4095;48.942;9.104;2023-07-30T06:23:59;2.00;;;1.50;;
8104;SDS011;4095;48.942;9.104;2023-07-30T06:26:25;1.70;;;1.37;;
8104;SDS011;4095;48.942;9.104;2023-07-30T06:28:51;1.70;;;1.40;;
8104;SDS011;4095;48.942;9.104;2023-07-30T06:31:16;1.67;;;1.57;;
8104;SDS011;4095;48.942;9.104;2023-07-30T06:33:42;1.60;;;1.50;;
8104;SDS011;4095;48.942;9.104;2023-07-30T06:36:08;1.67;;;1.40;;
8104;SDS011;4095;48.942;9.104;2023-07-30T06:38:33;2.00;;;1.63;;
8104;SDS011;4095;48.942;9.104;2023-07-30T06:40:59;2.37;;;1.53;;
8104;SDS011;4095;48.942;9.104;2023-07-30T06:43:25;1.93;;;1.37;;
8104;SDS011;4095;48.942;9.104;2023-07-30T06:45:51;1.97;;;1.50;;
8104;SDS011;4095;48.942;9.104;2023-07-30T06:48:18;1.50;;;1.40;;
8104;SDS011;4095;48.942;9.104;2023-07-30T06:50:43;1.40;;;1.23;;
8104;SDS011;4095;48.942;9.104;2023-07-30T06:53:09;1.90;;;1.60;;
8104;SDS011;4095;48.942;9.104;2023-07-30T06:55:34;4.63;;;1.60;;
8104;SDS011;4095;48.942;9.104;2023-07-30T06:58:00;1.60;;;1.50;;
8104;SDS011;4095;48.942;9.104;2023-07-30T07:00:26;3.93;;;1.57;;
8104;SDS011;4095;48.942;9.104;2023-07-30T07:02:52;3.67;;;1.50;;
8104;SDS011;4095;48.942;9.104;2023-07-30T07:05:17;1.50;;;1.30;;
8104;SDS011;4095;48.942;9.104;2023-07-30T07:07:43;1.50;;;1.40;;
8104;SDS011;4095;48.942;9.104;2023-07-30T07:10:08;1.40;;;1.30;;
8104;SDS011;4095;48.942;9.104;2023-07-30T07:12:35;2.17;;;1.60;;
8104;SDS011;4095;48.942;9.104;2023-07-30T07:15:03;1.80;;;1.40;;
8104;SDS011;4095;48.942;9.104;2023-07-30T07:17:29;2.70;;;1.40;;
8104;SDS011;4095;48.942;9.104;2023-07-30T07:19:55;1.70;;;1.57;;
8104;SDS011;4095;48.942;9.104;2023-07-30T07:22:21;1.50;;;1.40;;
8104;SDS011;4095;48.942;9.104;2023-07-30T07:24:47;1.60;;;1.40;;
8104;SDS011;4095;48.942;9.104;2023-07-30T07:27:13;1.50;;;1.40;;
8104;SDS011;4095;48.942;9.104;2023-07-30T07:29:38;2.30;;;1.77;;
8104;SDS011;4095;48.942;9.104;2023-07-30T07:32:04;2.43;;;1.90;;
8104;SDS011;4095;48.942;9.104;2023-07-30T07:34:30;1.73;;;1.60;;
8104;SDS011;4095;48.942;9.104;2023-07-30T07:36:56;3.00;;;1.70;;
8104;SDS011;4095;48.942;9.104;2023-07-30T07:39:21;3.23;;;1.80;;
8104;SDS011;4095;48.942;9.104;2023-07-30T07:41:47;3.33;;;1.83;;
8104;SDS011;4095;48.942;9.104;2023-07-30T07:44:12;3.33;;;1.80;;
8104;SDS011;4095;48.942;9.104;2023-07-30T07:46:38;1.80;;;1.70;;
8104;SDS011;4095;48.942;9.104;2023-07-30T07:49:04;2.20;;;2.00;;
8104;SDS011;4095;48.942;9.104;2023-07-30T07:51:29;2.50;;;1.80;;
8104;SDS011;4095;48.942;9.104;2023-07-30T07:53:55;2.63;;;1.60;;
8104;SDS011;4095;48.942;9.104;2023-07-30T07:56:21;3.40;;;1.60;;
8104;SDS011;4095;48.942;9.104;2023-07-30T07:58:46;2.13;;;1.60;;
8104;SDS011;4095;48.942;9.104;2023-07-30T08:01:12;3.23;;;1.87;;
8104;SDS011;4095;48.942;9.104;2023-07-30T08:03:38;2.37;;;1.50;;
8104;SDS011;4095;48.942;9.104;2023-07-30T08:06:03;2.00;;;1.60;;
8104;SDS011;4095;48.942;9.104;2023-07-30T08:08:30;2.57;;;1.80;;
8104;SDS011;4095;48.942;9.104;2023-07-30T08:10:56;2.47;;;1.97;;
8104;SDS011;4095;48.942;9.104;2023-07-30T08:13:21;3.70;;;2.07;;
8104;SDS011;4095;48.942;9.104;2023-07-30T08:15:47;2.53;;;2.33;;
8104;SDS011;4095;48.942;9.104;2023-07-30T08:18:13;2.10;;;2.00;;
8104;SDS011;4095;48.942;9.104;2023-07-30T08:20:38;2.50;;;2.30;;
8104;SDS011;4095;48.942;9.104;2023-07-30T08:23:04;2.37;;;2.17;;
8104;SDS011;4095;48.942;9.104;2023-07-30T08:25:30;3.10;;;2.30;;
8104;SDS011;4095;48.942;9.104;2023-07-30T08:27:55;2.97;;;2.40;;
8104;SDS011;4095;48.942;9.104;2023-07-30T08:30:21;2.30;;;2.10;;
8104;SDS011;4095;48.942;9.104;2023-07-30T08:32:46;2.47;;;2.27;;
8104;SDS011;4095;48.942;9.104;2023-07-30T08:35:12;2.93;;;2.20;;
8104;SDS011;4095;48.942;9.104;2023-07-30T08:37:38;4.93;;;2.43;;
8104;SDS011;4095;48.942;9.104;2023-07-30T08:40:03;2.20;;;2.00;;
8104;SDS011;4095;48.942;9.104;2023-07-30T08:42:29;2.50;;;2.30;;
8104;SDS011;4095;48.942;9.104;2023-07-30T08:44:55;2.47;;;2.27;;
8104;SDS011;4095;48.942;9.104;2023-07-30T08:47:21;2.90;;;2.70;;
8104;SDS011;4095;48.942;9.104;2023-07-30T08:49:47;3.33;;;2.50;;
8104;SDS011;4095;48.942;9.104;2023-07-30T08:52:12;2.73;;;2.47;;
8104;SDS011;4095;48.942;9.104;2023-07-30T08:54:41;2.60;;;2.33;;
8104;SDS011;4095;48.942;9.104;2023-07-30T08:57:08;3.57;;;2.37;;
8104;SDS011;4095;48.942;9.104;2023-07-30T08:59:39;2.63;;;2.30;;
8104;SDS011;4095;48.942;9.104;2023-07-30T09:02:13;2.88;;;2.35;;
8104;SDS011;4095;48.942;9.104;2023-07-30T09:04:49;3.40;;;2.50;;
8104;SDS011;4095;48.942;9.104;2023-07-30T09:07:20;2.42;;;2.10;;
8104;SDS011;4095;48.942;9.104;2023-07-30T09:09:45;2.50;;;2.22;;
8104;SDS011;4095;48.942;9.104;2023-07-30T09:12:14;3.80;;;2.30;;
8104;SDS011;4095;48.942;9.104;2023-07-30T09:14:40;2.40;;;2.10;;
8104;SDS011;4095;48.942;9.104;2023-07-30T09:17:09;3.13;;;2.37;;
8104;SDS011;4095;48.942;9.104;2023-07-30T09:19:36;6.40;;;2.53;;
8104;SDS011;4095;48.942;9.104;2023-07-30T09:22:05;3.85;;;2.00;;
8104;SDS011;4095;48.942;9.104;2023-07-30T09:24:31;3.47;;;2.00;;
8104;SDS011;4095;48.942;9.104;2023-07-30T09:26:57;3.30;;;2.40;;
8104;SDS011;4095;48.942;9.104;2023-07-30T09:29:27;2.45;;;2.00;;
8104;SDS011;4095;48.942;9.104;2023-07-30T09:31:53;2.90;;;2.25;;
8104;SDS011;4095;48.942;9.104;2023-07-30T09:34:21;3.00;;;2.10;;
8104;SDS011;4095;48.942;9.104;2023-07-30T09:36:52;2.40;;;2.20;;
8104;SDS011;4095;48.942;9.104;2023-07-30T09:41:46;4.32;;;2.10;;
8104;SDS011;4095;48.942;9.104;2023-07-30T09:44:13;2.70;;;2.00;;
8104;SDS011;4095;48.942;9.104;2023-07-30T09:46:42;2.35;;;2.15;;
8104;SDS011;4095;48.942;9.104;2023-07-30T09:49:12;3.15;;;2.00;;
8104;SDS011;4095;48.942;9.104;2023-07-30T09:51:38;2.30;;;2.00;;
8104;SDS011;4095;48.942;9.104;2023-07-30T09:54:07;3.58;;;2.28;;
8104;SDS011;4095;48.942;9.104;2023-07-30T09:56:37;3.17;;;2.20;;
8104;SDS011;4095;48.942;9.104;2023-07-30T09:59:04;2.42;;;2.22;;
8104;SDS011;4095;48.942;9.104;2023-07-30T10:01:31;2.35;;;1.85;;
8104;SDS011;4095;48.942;9.104;2023-07-30T10:03:59;2.95;;;2.38;;
8104;SDS011;4095;48.942;9.104;2023-07-30T10:06:31;2.90;;;2.13;;
8104;SDS011;4095;48.942;9.104;2023-07-30T10:09:00;4.15;;;2.30;;
8104;SDS011;4095;48.942;9.104;2023-07-30T10:11:26;4.18;;;2.17;;
8104;SDS011;4095;48.942;9.104;2023-07-30T10:13:53;3.35;;;2.20;;
8104;SDS011;4095;48.942;9.104;2023-07-30T10:16:24;3.60;;;2.03;;
8104;SDS011;4095;48.942;9.104;2023-07-30T10:18:57;2.70;;;2.30;;
8104;SDS011;4095;48.942;9.104;2023-07-30T10:21:24;2.65;;;2.20;;
8104;SDS011;4095;48.942;9.104;2023-07-30T10:24:01;2.72;;;2.38;;
8104;SDS011;4095;48.942;9.104;2023-07-30T10:26:29;4.40;;;2.40;;
8104;SDS011;4095;48.942;9.104;2023-07-30T10:31:42;3.75;;;2.38;;
8104;SDS011;4095;48.942;9.104;2023-07-30T10:34:14;2.10;;;1.90;;
8104;SDS011;4095;48.942;9.104;2023-07-30T10:36:41;4.20;;;2.20;;
8104;SDS011;4095;48.942;9.104;2023-07-30T10:41:44;4.60;;;2.33;;
8104;SDS011;4095;48.942;9.104;2023-07-30T10:44:27;2.92;;;2.22;;
8104;SDS011;4095;48.942;9.104;2023-07-30T10:46:56;3.10;;;2.10;;
8104;SDS011;4095;48.942;9.104;2023-07-30T10:49:22;3.08;;;2.30;;
8104;SDS011;4095;48.942;9.104;2023-07-30T10:51:50;2.58;;;2.25;;
8104;SDS011;4095;48.942;9.104;2023-07-30T10:54:17;3.80;;;2.15;;
8104;SDS011;4095;48.942;9.104;2023-07-30T10:56:43;3.33;;;2.40;;
8104;SDS011;4095;48.942;9.104;2023-07-30T10:59:11;3.17;;;2.20;;
8104;SDS011;4095;48.942;9.104;2023-07-30T11:01:38;2.90;;;1.80;;
8104;SDS011;4095;48.942;9.104;2023-07-30T11:04:12;2.35;;;2.00;;
8104;SDS011;4095;48.942;9.104;2023-07-30T11:06:46;3.42;;;2.00;;
8104;SDS011;4095;48.942;9.104;2023-07-30T11:09:26;2.92;;;2.10;;
8104;SDS011;4095;48.942;9.104;2023-07-30T11:11:56;2.55;;;2.00;;
8104;SDS011;4095;48.942;9.104;2023-07-30T11:14:22;2.88;;;2.10;;
8104;SDS011;4095;48.942;9.104;2023-07-30T11:16:54;3.50;;;2.20;;
8104;SDS011;4095;48.942;9.104;2023-07-30T11:19:23;2.33;;;1.80;;
8104;SDS011;4095;48.942;9.104;2023-07-30T11:21:51;5.38;;;2.25;;
8104;SDS011;4095;48.942;9.104;2023-07-30T11:24:18;2.28;;;1.83;;
8104;SDS011;4095;48.942;9.104;2023-07-30T11:26:44;3.38;;;2.17;;
8104;SDS011;4095;48.942;9.104;2023-07-30T11:29:16;2.90;;;1.90;;
8104;SDS011;4095;48.942;9.104;2023-07-30T11:31:44;2.75;;;1.92;;
8104;SDS011;4095;48.942;9.104;2023-07-30T11:34:10;3.05;;;2.15;;
8104;SDS011;4095;48.942;9.104;2023-07-30T11:36:37;3.15;;;2.17;;
8104;SDS011;4095;48.942;9.104;2023-07-30T11:39:03;2.70;;;1.80;;
8104;SDS011;4095;48.942;9.104;2023-07-30T11:41:29;2.15;;;1.80;;
8104;SDS011;4095;48.942;9.104;2023-07-30T11:43:55;2.83;;;1.92;;
8104;SDS011;4095;48.942;9.104;2023-07-30T11:46:21;2.03;;;1.80;;
8104;SDS011;4095;48.942;9.104;2023-07-30T11:48:48;2.13;;;1.92;;
8104;SDS011;4095;48.942;9.104;2023-07-30T11:53:51;3.65;;;2.13;;
8104;SDS011;4095;48.942;9.104;2023-07-30T11:56:33;3.28;;;1.75;;
8104;SDS011;4095;48.942;9.104;2023-07-30T11:59:00;2.97;;;1.70;;
8104;SDS011;4095;48.942;9.104;2023-07-30T12:01:29;4.10;;;1.70;;
8104;SDS011;4095;48.942;9.104;2023-07-30T12:03:55;4.07;;;1.60;;
8104;SDS011;4095;48.942;9.104;2023-07-30T12:06:22;1.63;;;1.52;;
8104;SDS011;4095;48.942;9.104;2023-07-30T12:08:48;2.63;;;2.00;;
8104;SDS011;4095;48.942;9.104;2023-07-30T12:11:14;2.40;;;1.73;;
8104;SDS011;4095;48.942;9.104;2023-07-30T12:13:45;1.88;;;1.70;;
8104;SDS011;4095;48.942;9.104;2023-07-30T12:16:11;3.20;;;1.63;;
8104;SDS011;4095;48.942;9.104;2023-07-30T12:18:39;3.55;;;1.70;;
8104;SDS011;4095;48.942;9.104;2023-07-30T12:21:05;1.85;;;1.70;;
8104;SDS011;4095;48.942;9.104;2023-07-30T12:23:36;3.28;;;1.85;;
8104;SDS011;4095;48.942;9.104;2023-07-30T12:26:02;2.38;;;1.92;;
8104;SDS011;4095;48.942;9.104;2023-07-30T12:28:34;2.45;;;1.90;;
8104;SDS011;4095;48.942;9.104;2023-07-30T12:31:00;1.65;;;1.48;;
8104;SDS011;4095;48.942;9.104;2023-07-30T12:33:26;2.20;;;1.30;;
8104;SDS011;4095;48.942;9.104;2023-07-30T12:35:51;2.47;;;1.58;;
8104;SDS011;4095;48.942;9.104;2023-07-30T12:38:18;2.20;;;1.50;;
8104;SDS011;4095;48.942;9.104;2023-07-30T12:40:43;1.52;;;1.20;;
8104;SDS011;4095;48.942;9.104;2023-07-30T12:43:09;2.13;;;1.65;;
8104;SDS011;4095;48.942;9.104;2023-07-30T12:45:34;2.78;;;1.73;;
8104;SDS011;4095;48.942;9.104;2023-07-30T12:48:00;2.47;;;1.70;;
8104;SDS011;4095;48.942;9.104;2023-07-30T12:50:26;2.38;;;1.20;;
8104;SDS011;4095;48.942;9.104;2023-07-30T12:52:52;2.05;;;1.40;;
8104;SDS011;4095;48.942;9.104;2023-07-30T12:55:17;2.97;;;1.70;;
8104;SDS011;4095;48.942;9.104;2023-07-30T12:57:43;2.25;;;1.52;;
8104;SDS011;4095;48.942;9.104;2023-07-30T13:00:09;4.53;;;1.70;;
8104;SDS011;4095;48.942;9.104;2023-07-30T13:02:35;1.88;;;1.20;;
8104;SDS011;4095;48.942;9.104;2023-07-30T13:05:01;1.98;;;1.38;;
8104;SDS011;4095;48.942;9.104;2023-07-30T13:07:29;2.63;;;2.03;;
8104;SDS011;4095;48.942;9.104;2023-07-30T13:10:07;2.65;;;1.52;;
8104;SDS011;4095;48.942;9.104;2023-07-30T13:12:33;1.63;;;1.30;;
8104;SDS011;4095;48.942;9.104;2023-07-30T13:15:00;3.63;;;1.45;;
8104;SDS011;4095;48.942;9.104;2023-07-30T13:17:26;2.22;;;1.40;;
8104;SDS011;4095;48.942;9.104;2023-07-30T13:19:52;3.50;;;1.40;;
8104;SDS011;4095;48.942;9.104;2023-07-30T13:22:18;2.50;;;1.60;;
8104;SDS011;4095;48.942;9.104;2023-07-30T13:24:43;2.63;;;1.75;;
8104;SDS011;4095;48.942;9.104;2023-07-30T13:27:09;2.22;;;1.45;;
8104;SDS011;4095;48.942;9.104;2023-07-30T13:29:35;2.75;;;1.60;;
8104;SDS011;4095;48.942;9.104;2023-07-30T13:32:01;3.30;;;1.40;;
8104;SDS011;4095;48.942;9.104;2023-07-30T13:34:27;1.88;;;1.40;;
8104;SDS011;4095;48.942;9.104;2023-07-30T13:36:53;4.97;;;2.08;;
8104;SDS011;4095;48.942;9.104;2023-07-30T13:39:19;4.32;;;1.60;;
8104;SDS011;4095;48.942;9.104;2023-07-30T13:41:44;3.67;;;1.77;;
8104;SDS011;4095;48.942;9.104;2023-07-30T13:44:10;3.70;;;1.85;;
8104;SDS011;4095;48.942;9.104;2023-07-30T13:46:36;2.25;;;1.50;;
8104;SDS011;4095;48.942;9.104;2023-07-30T13:49:02;3.78;;;1.55;;
8104;SDS011;4095;48.942;9.104;2023-07-30T13:51:29;4.88;;;1.77;;
8104;SDS011;4095;48.942;9.104;2023-07-30T13:53:58;2.80;;;1.90;;
8104;SDS011;4095;48.942;9.104;2023-07-30T13:56:24;3.72;;;1.77;;
8104;SDS011;4095;48.942;9.104;2023-07-30T13:58:50;4.13;;;2.20;;
8104;SDS011;4095;48.942;9.104;2023-07-30T14:01:16;2.00;;;1.42;;
8104;SDS011;4095;48.942;9.104;2023-07-30T14:03:42;3.17;;;1.80;;
8104;SDS011;4095;48.942;9.104;2023-07-30T14:06:08;4.40;;;2.00;;
8104;SDS011;4095;48.942;9.104;2023-07-30T14:08:34;3.42;;;2.13;;
8104;SDS011;4095;48.942;9.104;2023-07-30T14:11:00;3.60;;;1.70;;
8104;SDS011;4095;48.942;9.104;2023-07-30T14:13:25;2.58;;;1.65;;
8104;SDS011;4095;48.942;9.104;2023-07-30T14:15:51;4.05;;;2.28;;
8104;SDS011;4095;48.942;9.104;2023-07-30T14:18:17;6.40;;;2.13;;
8104;SDS011;4095;48.942;9.104;2023-07-30T14:20:43;6.05;;;2.00;;
8104;SDS011;4095;48.942;9.104;2023-07-30T14:23:09;3.28;;;1.80;;
8104;SDS011;4095;48.942;9.104;2023-07-30T14:25:36;3.97;;;1.90;;
8104;SDS011;4095;48.942;9.104;2023-07-30T14:28:02;3.90;;;1.90;;
8104;SDS011;4095;48.942;9.104;2023-07-30T14:30:27;3.65;;;1.90;;
8104;SDS011;4095;48.942;9.104;2023-07-30T14:32:53;4.32;;;2.00;;
8104;SDS011;4095;48.942;9.104;2023-07-30T14:35:19;3.97;;;1.88;;
8104;SDS011;4095;48.942;9.104;2023-07-30T14:37:45;4.10;;;1.85;;
8104;SDS011;4095;48.942;9.104;2023-07-30T14:40:11;2.97;;;1.77;;
8104;SDS011;4095;48.942;9.104;2023-07-30T14:42:36;2.13;;;1.60;;
8104;SDS011;4095;48.942;9.104;2023-07-30T14:45:02;2.50;;;1.58;;
8104;SDS011;4095;48.942;9.104;2023-07-30T14:47:28;4.43;;;2.00;;
8104;SDS011;4095;48.942;9.104;2023-07-30T14:49:54;3.10;;;1.67;;
8104;SDS011;4095;48.942;9.104;2023-07-30T14:52:19;4.07;;;1.73;;
8104;SDS011;4095;48.942;9.104;2023-07-30T14:54:45;3.58;;;1.70;;
8104;SDS011;4095;48.942;9.104;2023-07-30T14:57:11;2.88;;;1.60;;
8104;SDS011;4095;48.942;9.104;2023-07-30T14:59:36;3.30;;;1.73;;
8104;SDS011;4095;48.942;9.104;2023-07-30T15:02:02;3.40;;;1.50;;
8104;SDS011;4095;48.942;9.104;2023-07-30T15:04:28;2.97;;;1.30;;
8104;SDS011;4095;48.942;9.104;2023-07-30T15:06:55;3.72;;;1.48;;
8104;SDS011;4095;48.942;9.104;2023-07-30T15:09:21;3.92;;;1.60;;
8104;SDS011;4095;48.942;9.104;2023-07-30T15:11:46;3.25;;;1.90;;
8104;SDS011;4095;48.942;9.104;2023-07-30T15:14:12;3.25;;;1.67;;
8104;SDS011;4095;48.942;9.104;2023-07-30T15:16:37;4.13;;;1.42;;
8104;SDS011;4095;48.942;9.104;2023-07-30T15:19:03;3.30;;;1.67;;
8104;SDS011;4095;48.942;9.104;2023-07-30T15:21:29;4.07;;;1.63;;
8104;SDS011;4095;48.942;9.104;2023-07-30T15:23:56;3.58;;;1.55;;